createdAt,value
2017-09-07T00:01:16.948Z,4.60
2017-09-07T00:03:44.492Z,4.60
2017-09-07T00:06:12.020Z,4.67
2017-09-07T00:08:39.608Z,5.03
2017-09-07T00:11:07.143Z,5.23
2017-09-07T00:13:35.439Z,4.83
2017-09-07T00:16:03.008Z,4.87
2017-09-07T00:18:30.539Z,5.00
2017-09-07T00:20:58.082Z,5.80
2017-09-07T00:23:25.664Z,4.33
2017-09-07T00:25:53.960Z,4.97
2017-09-07T00:28:21.484Z,5.10
2017-09-07T00:30:49.097Z,5.27
2017-09-07T00:33:16.651Z,4.83
2017-09-07T00:35:44.955Z,5.60
2017-09-07T00:38:12.520Z,5.40
2017-09-07T00:40:40.059Z,5.00
2017-09-07T00:43:07.588Z,5.10
2017-09-07T00:45:35.965Z,4.37
2017-09-07T00:48:03.529Z,5.18
2017-09-07T00:50:31.071Z,5.05
2017-09-07T00:52:59.424Z,5.47
2017-09-07T00:55:26.964Z,5.20
2017-09-07T00:57:54.511Z,5.53
2017-09-07T01:00:22.071Z,4.68
2017-09-07T01:02:50.095Z,5.93
2017-09-07T01:05:17.640Z,4.80
2017-09-07T01:07:45.212Z,5.00
2017-09-07T01:10:13.658Z,5.07
2017-09-07T01:12:41.195Z,6.10
2017-09-07T01:15:08.785Z,5.37
2017-09-07T01:17:36.383Z,4.50
2017-09-07T01:20:03.915Z,5.27
2017-09-07T01:22:31.485Z,5.03
2017-09-07T01:24:59.023Z,5.33
2017-09-07T01:27:26.555Z,5.13
2017-09-07T01:29:54.156Z,5.77
2017-09-07T01:32:21.689Z,5.00
2017-09-07T01:34:49.223Z,5.17
2017-09-07T01:37:16.831Z,5.40
2017-09-07T01:39:44.368Z,5.65
2017-09-07T01:42:11.909Z,5.60
2017-09-07T01:44:39.465Z,5.60
2017-09-07T01:47:06.991Z,6.03
2017-09-07T01:49:34.528Z,5.90
2017-09-07T01:52:02.088Z,5.47
2017-09-07T01:54:29.783Z,5.90
2017-09-07T01:56:58.079Z,5.60
2017-09-07T01:59:25.658Z,5.17
2017-09-07T02:01:53.200Z,6.30
2017-09-07T02:04:20.916Z,6.00
2017-09-07T02:06:48.477Z,5.60
2017-09-07T02:09:16.386Z,6.07
2017-09-07T02:11:43.915Z,6.37
2017-09-07T02:14:12.263Z,6.07
2017-09-07T02:16:39.791Z,6.27
2017-09-07T02:19:07.323Z,5.53
2017-09-07T02:21:34.908Z,6.60
2017-09-07T02:24:02.472Z,5.55
2017-09-07T02:26:30.013Z,6.00
2017-09-07T02:28:57.571Z,5.77
2017-09-07T02:31:25.872Z,6.40
2017-09-07T02:33:53.412Z,6.10
2017-09-07T02:36:21.009Z,6.00
2017-09-07T02:38:48.532Z,5.67
2017-09-07T02:41:16.456Z,5.25
2017-09-07T02:43:44.048Z,5.70
2017-09-07T02:46:11.579Z,5.03
2017-09-07T02:48:39.113Z,5.27
2017-09-07T02:51:07.451Z,5.30
2017-09-07T02:53:34.984Z,6.07
2017-09-07T02:56:02.517Z,6.28
2017-09-07T02:58:30.079Z,5.97
2017-09-07T03:00:57.616Z,5.10
2017-09-07T03:03:25.143Z,5.53
2017-09-07T03:05:53.787Z,5.30
2017-09-07T03:08:21.320Z,5.43
2017-09-07T03:10:48.850Z,4.97
2017-09-07T03:13:16.508Z,5.20
2017-09-07T03:15:44.821Z,5.10
2017-09-07T03:18:12.365Z,6.10
2017-09-07T03:20:40.684Z,5.30
2017-09-07T03:23:08.211Z,5.17
2017-09-07T03:25:35.752Z,5.13
2017-09-07T03:28:04.132Z,5.53
2017-09-07T03:30:31.672Z,4.73
2017-09-07T03:32:59.215Z,5.63
2017-09-07T03:35:26.776Z,4.87
2017-09-07T03:37:54.308Z,4.70
2017-09-07T03:40:21.850Z,5.22
2017-09-07T03:42:49.440Z,5.10
2017-09-07T03:45:16.976Z,5.00
2017-09-07T03:47:44.511Z,7.87
2017-09-07T03:50:12.108Z,5.20
2017-09-07T03:52:39.648Z,5.43
2017-09-07T03:55:07.188Z,5.07
2017-09-07T03:57:34.752Z,5.82
2017-09-07T04:00:03.059Z,5.07
2017-09-07T04:02:30.592Z,5.53
2017-09-07T04:04:58.159Z,5.90
2017-09-07T04:07:25.902Z,4.95
2017-09-07T04:09:53.449Z,5.80
2017-09-07T04:12:21.041Z,5.60
2017-09-07T04:14:49.337Z,5.20
2017-09-07T04:17:16.868Z,5.43
2017-09-07T04:19:45.195Z,5.72
2017-09-07T04:22:12.727Z,4.70
2017-09-07T04:24:40.269Z,5.87
2017-09-07T04:27:07.829Z,5.43
2017-09-07T04:29:35.364Z,5.90
2017-09-07T04:32:02.896Z,5.33
2017-09-07T04:34:30.496Z,5.93
2017-09-07T04:36:58.033Z,5.73
2017-09-07T04:39:25.575Z,5.30
2017-09-07T04:41:53.160Z,5.43
2017-09-07T04:44:20.709Z,6.03
2017-09-07T04:46:48.246Z,7.10
2017-09-07T04:49:17.276Z,6.20
2017-09-07T04:51:44.811Z,5.20
2017-09-07T04:54:12.345Z,6.03
2017-09-07T04:56:39.927Z,5.73
2017-09-07T04:59:07.460Z,5.22
2017-09-07T05:01:34.996Z,5.10
2017-09-07T05:04:02.573Z,6.07
2017-09-07T05:06:30.108Z,7.23
2017-09-07T05:08:58.304Z,5.33
2017-09-07T05:11:25.864Z,6.53
2017-09-07T05:13:53.399Z,5.43
2017-09-07T05:16:20.939Z,6.28
2017-09-07T05:18:48.536Z,5.78
2017-09-07T05:21:16.475Z,6.00
2017-09-07T05:23:44.014Z,5.20
2017-09-07T05:26:11.993Z,6.10
2017-09-07T05:28:39.542Z,5.83
2017-09-07T05:31:07.083Z,5.53
2017-09-07T05:33:34.672Z,5.50
2017-09-07T05:36:02.223Z,6.03
2017-09-07T05:38:29.766Z,5.97
2017-09-07T05:40:57.351Z,6.60
2017-09-07T05:43:24.884Z,5.47
2017-09-07T05:45:52.411Z,6.90
2017-09-07T05:48:20.733Z,6.85
2017-09-07T05:50:48.255Z,7.27
2017-09-07T05:53:16.492Z,5.90
2017-09-07T05:55:44.076Z,6.57
2017-09-07T05:58:12.375Z,6.50
2017-09-07T06:00:39.904Z,5.90
2017-09-07T06:03:08.264Z,7.68
2017-09-07T06:05:35.791Z,6.93
2017-09-07T06:08:03.328Z,6.50
2017-09-07T06:10:31.443Z,7.30
2017-09-07T06:12:58.971Z,6.67
2017-09-07T06:15:26.512Z,7.50
2017-09-07T06:17:54.839Z,7.33
2017-09-07T06:20:22.382Z,7.67
2017-09-07T06:22:49.929Z,7.10
2017-09-07T06:25:17.513Z,8.50
2017-09-07T06:27:45.043Z,7.90
2017-09-07T06:30:14.263Z,7.30
2017-09-07T06:32:42.588Z,8.67
2017-09-07T06:35:10.119Z,8.10
2017-09-07T06:37:37.653Z,6.30
2017-09-07T06:40:05.221Z,7.10
2017-09-07T06:42:34.982Z,7.45
2017-09-07T06:45:03.286Z,7.03
2017-09-07T06:47:30.875Z,7.27
2017-09-07T06:49:58.431Z,6.87
2017-09-07T06:52:25.968Z,6.90
2017-09-07T06:54:54.005Z,6.93
2017-09-07T06:57:21.663Z,6.60
2017-09-07T06:59:49.196Z,7.20
2017-09-07T07:02:16.948Z,7.57
2017-09-07T07:04:44.489Z,7.60
2017-09-07T07:07:12.032Z,7.77
2017-09-07T07:09:40.384Z,7.87
2017-09-07T07:12:08.389Z,7.10
2017-09-07T07:14:36.475Z,7.80
2017-09-07T07:17:04.068Z,6.97
2017-09-07T07:19:31.633Z,6.87
2017-09-07T07:21:59.535Z,6.20
2017-09-07T07:24:27.188Z,7.75
2017-09-07T07:26:54.785Z,8.20
2017-09-07T07:29:22.340Z,6.10
2017-09-07T07:31:50.116Z,6.27
2017-09-07T07:34:17.652Z,6.53
2017-09-07T07:36:45.222Z,6.07
2017-09-07T07:39:13.754Z,6.47
2017-09-07T07:41:41.304Z,5.40
2017-09-07T07:44:08.825Z,5.50
2017-09-07T07:46:36.431Z,5.30
2017-09-07T07:49:04.008Z,5.50
2017-09-07T07:51:31.539Z,5.95
2017-09-07T07:53:59.123Z,6.83
2017-09-07T07:56:26.653Z,6.13
2017-09-07T07:58:54.198Z,5.80
2017-09-07T08:01:21.779Z,5.95
2017-09-07T08:03:49.313Z,6.77
2017-09-07T08:06:16.848Z,5.70
2017-09-07T08:08:45.213Z,5.57
2017-09-07T08:11:14.462Z,6.10
2017-09-07T08:13:42.515Z,5.57
2017-09-07T08:16:10.124Z,5.57
2017-09-07T08:18:37.663Z,6.10
2017-09-07T08:21:05.277Z,5.40
2017-09-07T08:23:33.604Z,5.93
2017-09-07T08:26:01.177Z,5.40
2017-09-07T08:28:28.711Z,5.00
2017-09-07T08:30:56.371Z,5.90
2017-09-07T08:33:23.933Z,5.10
2017-09-07T08:35:51.514Z,6.30
2017-09-07T08:38:19.161Z,5.03
2017-09-07T08:40:46.801Z,6.23
2017-09-07T08:43:16.489Z,5.87
2017-09-07T08:45:44.060Z,5.63
2017-09-07T08:48:20.300Z,5.20
2017-09-07T08:50:48.742Z,4.70
2017-09-07T08:53:16.400Z,4.53
2017-09-07T08:55:43.932Z,4.20
2017-09-07T08:58:11.527Z,5.37
2017-09-07T09:00:39.112Z,4.90
2017-09-07T09:03:06.672Z,4.17
2017-09-07T09:05:34.281Z,3.97
2017-09-07T09:08:01.837Z,4.90
2017-09-07T09:10:29.395Z,4.47
2017-09-07T09:12:57.031Z,5.20
2017-09-07T09:15:25.369Z,5.10
2017-09-07T09:17:52.899Z,5.37
2017-09-07T09:20:22.921Z,5.22
2017-09-07T09:22:50.463Z,4.62
2017-09-07T09:25:18.012Z,4.63
2017-09-07T09:27:45.574Z,5.00
2017-09-07T09:30:14.635Z,4.60
2017-09-07T09:32:42.167Z,4.40
2017-09-07T09:35:09.727Z,4.90
2017-09-07T09:37:37.265Z,4.87
2017-09-07T09:40:04.812Z,4.40
2017-09-07T09:42:32.412Z,4.80
2017-09-07T09:44:59.963Z,4.70
2017-09-07T09:47:28.287Z,4.50
2017-09-07T09:49:55.850Z,4.90
2017-09-07T09:52:24.335Z,4.80
2017-09-07T10:00:00.066Z,3.90
2017-09-07T10:02:27.699Z,4.73
2017-09-07T10:04:55.325Z,4.17
2017-09-07T10:07:22.863Z,4.10
2017-09-07T10:09:50.420Z,3.90
2017-09-07T10:12:17.979Z,3.83
2017-09-07T10:14:45.533Z,4.40
2017-09-07T10:17:15.933Z,3.50
2017-09-07T10:19:43.532Z,4.20
2017-09-07T10:22:11.097Z,4.20
2017-09-07T10:24:38.738Z,4.47
2017-09-07T10:27:06.313Z,4.23
2017-09-07T10:29:33.852Z,3.70
2017-09-07T10:32:01.421Z,3.57
2017-09-07T10:34:28.960Z,4.10
2017-09-07T10:36:57.661Z,3.80
2017-09-07T10:39:25.270Z,4.28
2017-09-07T10:41:53.852Z,3.53
2017-09-07T10:44:21.421Z,4.93
2017-09-07T10:46:49.829Z,4.60
2017-09-07T10:49:17.401Z,4.90
2017-09-07T10:51:45.012Z,3.50
2017-09-07T10:54:14.314Z,4.90
2017-09-07T10:56:41.868Z,3.90
2017-09-07T10:59:09.552Z,5.68
2017-09-07T11:01:37.243Z,4.33
2017-09-07T11:04:04.980Z,4.43
2017-09-07T11:06:32.508Z,4.30
2017-09-07T11:09:00.144Z,4.60
2017-09-07T11:11:27.684Z,4.93
2017-09-07T11:13:55.219Z,4.40
2017-09-07T11:16:23.562Z,4.25
2017-09-07T11:18:51.814Z,3.90
2017-09-07T11:21:19.372Z,3.70
2017-09-07T11:23:47.141Z,4.03
2017-09-07T11:26:16.501Z,4.13
2017-09-07T11:28:44.130Z,3.90
2017-09-07T11:31:11.744Z,4.20
2017-09-07T11:33:39.331Z,4.60
2017-09-07T11:36:07.556Z,4.40
2017-09-07T11:38:35.145Z,4.20
2017-09-07T11:41:02.863Z,4.13
2017-09-07T11:43:30.794Z,4.72
2017-09-07T11:45:58.476Z,4.43
2017-09-07T11:48:27.258Z,4.90
2017-09-07T11:50:54.816Z,6.50
2017-09-07T11:53:22.411Z,4.32
2017-09-07T11:55:50.036Z,4.20
2017-09-07T11:58:17.656Z,4.03
2017-09-07T12:00:45.238Z,4.20
2017-09-07T12:03:14.827Z,4.20
2017-09-07T12:05:42.368Z,5.30
2017-09-07T12:08:09.930Z,4.47
2017-09-07T12:10:37.542Z,3.65
2017-09-07T12:13:05.174Z,4.17
2017-09-07T12:15:32.763Z,3.90
2017-09-07T12:18:00.292Z,3.70
2017-09-07T12:20:28.973Z,4.73
2017-09-07T12:22:57.304Z,5.05
2017-09-07T12:25:24.840Z,4.60
2017-09-07T12:27:55.223Z,4.53
2017-09-07T12:30:23.576Z,4.87
2017-09-07T12:32:53.152Z,5.03
2017-09-07T12:35:20.700Z,4.62
2017-09-07T12:37:48.323Z,5.47
2017-09-07T12:40:29.257Z,4.10
2017-09-07T12:45:48.347Z,4.33
2017-09-07T12:48:16.532Z,4.30
2017-09-07T12:50:44.124Z,4.57
2017-09-07T12:53:12.919Z,4.27
2017-09-07T12:55:40.452Z,4.50
2017-09-07T12:58:08.056Z,4.30
2017-09-07T13:00:35.644Z,5.05
2017-09-07T13:03:03.181Z,4.60
2017-09-07T13:05:30.734Z,4.27
2017-09-07T13:07:58.291Z,5.23
2017-09-07T13:10:26.468Z,5.07
2017-09-07T13:12:54.021Z,5.50
2017-09-07T13:15:21.611Z,4.27
2017-09-07T13:17:49.152Z,3.90
2017-09-07T13:20:16.690Z,4.63
2017-09-07T13:22:45.304Z,4.30
2017-09-07T13:25:14.625Z,4.07
2017-09-07T13:27:42.272Z,4.43
2017-09-07T13:30:09.868Z,4.20
2017-09-07T13:32:38.396Z,5.07
2017-09-07T13:35:05.980Z,4.67
2017-09-07T13:37:34.687Z,5.00
2017-09-07T13:40:02.244Z,4.00
2017-09-07T13:42:29.785Z,4.20
2017-09-07T13:44:58.047Z,4.30
2017-09-07T13:47:25.588Z,4.10
2017-09-07T13:49:53.119Z,5.77
2017-09-07T13:52:20.701Z,4.80
2017-09-07T13:54:49.012Z,4.47
2017-09-07T13:57:16.549Z,4.53
2017-09-07T13:59:44.893Z,4.23
2017-09-07T14:02:12.430Z,4.27
2017-09-07T14:04:39.968Z,4.00
2017-09-07T14:07:07.545Z,5.17
2017-09-07T14:09:35.119Z,4.27
2017-09-07T14:12:02.653Z,4.70
2017-09-07T14:14:30.216Z,4.83
2017-09-07T14:16:58.687Z,4.60
2017-09-07T14:19:26.228Z,4.70
2017-09-07T14:21:53.822Z,4.30
2017-09-07T14:24:21.568Z,4.90
2017-09-07T14:26:49.105Z,4.20
2017-09-07T14:29:17.424Z,4.43
2017-09-07T14:31:44.997Z,4.60
2017-09-07T14:34:14.213Z,4.12
2017-09-07T14:36:41.769Z,4.20
2017-09-07T14:39:09.308Z,4.67
2017-09-07T14:41:36.859Z,3.90
2017-09-07T14:44:04.495Z,4.53
2017-09-07T14:46:32.031Z,4.18
2017-09-07T14:48:59.569Z,4.03
2017-09-07T14:51:27.161Z,4.80
2017-09-07T14:53:54.704Z,4.23
2017-09-07T14:56:22.245Z,3.60
2017-09-07T14:58:49.810Z,4.50
2017-09-07T15:01:17.344Z,4.13
2017-09-07T15:03:44.872Z,4.10
2017-09-07T15:06:12.480Z,3.80
2017-09-07T15:08:40.012Z,3.30
2017-09-07T15:11:07.544Z,3.50
2017-09-07T15:13:35.092Z,3.63
2017-09-07T15:16:02.640Z,3.60
2017-09-07T15:18:30.208Z,3.58
2017-09-07T15:20:57.759Z,3.50
2017-09-07T15:23:25.291Z,3.50
2017-09-07T15:25:52.965Z,3.13
2017-09-07T15:28:21.032Z,3.53
2017-09-07T15:30:48.568Z,3.17
2017-09-07T15:33:17.157Z,3.93
2017-09-07T15:35:44.713Z,3.53
2017-09-07T15:38:12.241Z,3.53
2017-09-07T15:40:39.783Z,3.00
2017-09-07T15:43:07.342Z,3.20
2017-09-07T15:45:34.872Z,3.00
2017-09-07T15:48:02.416Z,3.37
2017-09-07T15:50:30.024Z,3.23
2017-09-07T15:52:57.557Z,3.37
2017-09-07T15:55:25.091Z,2.97
2017-09-07T15:57:52.648Z,2.97
2017-09-07T16:00:20.225Z,2.97
2017-09-07T16:02:47.768Z,3.40
2017-09-07T16:05:16.563Z,3.03
2017-09-07T16:07:44.223Z,2.70
2017-09-07T16:10:11.800Z,3.40
2017-09-07T16:12:39.460Z,2.80
2017-09-07T16:15:07.094Z,7.57
2017-09-07T16:17:34.754Z,5.20
2017-09-07T16:20:02.387Z,15.07
2017-09-07T16:22:30.024Z,8.17
2017-09-07T16:24:57.586Z,3.57
2017-09-07T16:27:25.224Z,3.87
2017-09-07T16:29:52.822Z,3.37
2017-09-07T16:32:20.363Z,3.87
2017-09-07T16:34:47.952Z,3.37
2017-09-07T16:37:16.541Z,3.74
2017-09-07T16:39:44.085Z,3.47
2017-09-07T16:42:11.648Z,3.73
2017-09-07T16:44:39.182Z,3.27
2017-09-07T16:47:06.723Z,3.90
2017-09-07T16:49:34.271Z,3.77
2017-09-07T16:52:01.804Z,3.97
2017-09-07T16:54:29.339Z,3.87
2017-09-07T16:56:57.230Z,4.07
2017-09-07T16:59:24.776Z,6.40
2017-09-07T17:01:53.116Z,6.17
2017-09-07T17:04:20.704Z,8.05
2017-09-07T17:06:48.237Z,4.57
2017-09-07T17:09:17.204Z,4.43
2017-09-07T17:11:44.763Z,5.77
2017-09-07T17:14:12.296Z,7.83
2017-09-07T17:16:39.849Z,5.80
2017-09-07T17:19:07.432Z,6.43
2017-09-07T17:21:35.008Z,4.80
2017-09-07T17:24:02.551Z,4.80
2017-09-07T17:26:30.119Z,4.82
2017-09-07T17:28:58.279Z,4.50
2017-09-07T17:31:25.837Z,6.00
2017-09-07T17:33:54.208Z,4.57
2017-09-07T17:36:21.821Z,4.87
2017-09-07T17:38:49.357Z,4.60
2017-09-07T17:41:17.000Z,4.97
2017-09-07T17:43:45.412Z,4.62
2017-09-07T17:46:15.471Z,5.65
2017-09-07T17:48:43.087Z,4.97
2017-09-07T17:51:10.623Z,5.50
2017-09-07T17:53:38.259Z,5.63
2017-09-07T17:56:05.815Z,4.60
2017-09-07T17:58:33.360Z,5.93
2017-09-07T18:01:00.936Z,4.73
2017-09-07T18:03:28.594Z,5.43
2017-09-07T18:05:56.205Z,4.90
2017-09-07T18:08:23.739Z,5.80
2017-09-07T18:10:51.486Z,6.50
2017-09-07T18:13:19.020Z,8.73
2017-09-07T18:15:46.564Z,8.30
2017-09-07T18:18:26.601Z,7.15
2017-09-07T18:23:50.108Z,5.40
2017-09-07T18:26:19.005Z,5.43
2017-09-07T18:28:46.548Z,5.63
2017-09-07T18:31:25.642Z,8.23
2017-09-07T18:33:53.260Z,9.70
2017-09-07T18:36:20.797Z,7.40
2017-09-07T18:38:48.358Z,7.40
2017-09-07T18:41:16.535Z,9.30
2017-09-07T18:43:44.069Z,7.80
2017-09-07T18:46:11.700Z,8.05
2017-09-07T18:48:39.317Z,8.23
2017-09-07T18:51:06.871Z,7.80
2017-09-07T18:53:34.675Z,7.30
2017-09-07T18:56:03.518Z,8.67
2017-09-07T18:58:31.092Z,8.10
2017-09-07T19:00:58.663Z,9.40
2017-09-07T19:03:26.217Z,10.47
2017-09-07T19:05:54.198Z,11.90
2017-09-07T19:08:21.866Z,10.70
2017-09-07T19:10:49.624Z,10.30
2017-09-07T19:13:17.230Z,10.80
2017-09-07T19:15:44.871Z,8.70
2017-09-07T19:18:12.424Z,8.95
2017-09-07T19:20:40.238Z,9.37
2017-09-07T19:23:08.075Z,8.30
2017-09-07T19:25:38.928Z,9.17
2017-09-07T19:28:06.564Z,9.18
2017-09-07T19:30:34.210Z,9.77
2017-09-07T19:33:02.308Z,9.80
2017-09-07T19:35:30.735Z,8.73
2017-09-07T19:37:58.320Z,9.53
2017-09-07T19:40:25.863Z,7.70
2017-09-07T19:42:53.421Z,8.37
2017-09-07T19:45:21.048Z,9.20
2017-09-07T19:47:48.581Z,7.90
2017-09-07T19:50:17.228Z,8.13
2017-09-07T19:52:44.816Z,7.83
2017-09-07T19:55:12.352Z,8.40
2017-09-07T19:57:39.884Z,8.40
2017-09-07T20:00:07.523Z,10.60
2017-09-07T20:02:35.887Z,8.30
2017-09-07T20:05:03.469Z,9.38
2017-09-07T20:07:31.131Z,8.40
2017-09-07T20:09:58.716Z,8.87
2017-09-07T20:12:26.247Z,8.83
2017-09-07T20:14:54.720Z,8.60
2017-09-07T20:17:22.331Z,9.23
2017-09-07T20:19:49.935Z,9.20
2017-09-07T20:22:17.562Z,9.30
2017-09-07T20:24:45.206Z,11.53
2017-09-07T20:27:13.795Z,8.63
2017-09-07T20:29:41.371Z,8.67
2017-09-07T20:32:08.908Z,7.40
2017-09-07T20:34:36.719Z,7.47
2017-09-07T20:37:04.304Z,7.83
2017-09-07T20:39:31.942Z,8.00
2017-09-07T20:41:59.484Z,8.07
2017-09-07T20:44:27.084Z,8.10
2017-09-07T20:46:55.181Z,6.90
2017-09-07T20:49:22.772Z,7.57
2017-09-07T20:51:50.428Z,8.20
2017-09-07T20:54:18.066Z,7.53
2017-09-07T20:56:45.620Z,8.20
2017-09-07T20:59:14.627Z,8.30
2017-09-07T21:01:42.165Z,8.50
2017-09-07T21:04:10.528Z,8.30
2017-09-07T21:06:38.100Z,7.07
2017-09-07T21:09:06.399Z,8.13
2017-09-07T21:11:33.936Z,7.07
2017-09-07T21:14:01.498Z,8.60
2017-09-07T21:16:29.068Z,7.60
2017-09-07T21:18:57.363Z,7.70
2017-09-07T21:21:24.977Z,8.20
2017-09-07T21:23:52.537Z,7.30
2017-09-07T21:26:20.076Z,6.78
2017-09-07T21:28:47.640Z,8.47
2017-09-07T21:31:15.630Z,7.35
2017-09-07T21:33:43.176Z,6.87
2017-09-07T21:36:11.138Z,8.03
2017-09-07T21:38:38.675Z,6.50
2017-09-07T21:41:06.204Z,7.13
2017-09-07T21:43:33.795Z,7.40
2017-09-07T21:46:02.095Z,7.80
2017-09-07T21:48:32.004Z,7.80
2017-09-07T21:50:59.602Z,7.35
2017-09-07T21:53:36.151Z,7.75
2017-09-07T21:56:03.714Z,8.30
2017-09-07T21:58:31.251Z,7.90
2017-09-07T22:00:58.783Z,7.53
2017-09-07T22:03:26.386Z,8.32
2017-09-07T22:05:53.933Z,7.70
2017-09-07T22:08:21.476Z,7.40
2017-09-07T22:10:49.088Z,7.50
2017-09-07T22:13:17.455Z,7.07
2017-09-07T22:15:44.992Z,6.80
2017-09-07T22:18:14.316Z,6.87
2017-09-07T22:20:41.840Z,7.17
2017-09-07T22:23:09.367Z,6.90
2017-09-07T22:25:37.183Z,7.77
2017-09-07T22:28:04.767Z,8.13
2017-09-07T22:30:32.302Z,8.23
2017-09-07T22:32:59.861Z,8.30
2017-09-07T22:35:27.395Z,7.93
2017-09-07T22:37:55.331Z,8.10
2017-09-07T22:40:23.657Z,8.03
2017-09-07T22:42:51.195Z,9.17
2017-09-07T22:45:18.804Z,9.90
2017-09-07T22:47:46.444Z,9.63
2017-09-07T22:50:15.580Z,9.05
2017-09-07T22:52:43.959Z,9.77
2017-09-07T22:55:11.535Z,10.03
2017-09-07T22:57:39.069Z,10.83
2017-09-07T23:00:06.599Z,11.23
2017-09-07T23:02:34.168Z,10.70
2017-09-07T23:05:01.699Z,9.93
2017-09-07T23:07:29.301Z,9.40
2017-09-07T23:09:56.884Z,9.23
2017-09-07T23:12:24.419Z,8.67
2017-09-07T23:14:52.319Z,9.80
2017-09-07T23:17:19.876Z,9.48
2017-09-07T23:19:47.408Z,9.43
2017-09-07T23:22:17.727Z,9.65
2017-09-07T23:24:46.357Z,9.17
2017-09-07T23:27:16.401Z,9.40
2017-09-07T23:29:44.090Z,9.80
2017-09-07T23:32:11.751Z,9.30
2017-09-07T23:34:39.278Z,9.87
2017-09-07T23:37:06.897Z,11.30
2017-09-07T23:39:35.022Z,9.30
2017-09-07T23:42:02.554Z,9.20
2017-09-07T23:44:30.847Z,9.33
2017-09-07T23:46:58.408Z,9.43
2017-09-07T23:49:25.939Z,10.20
2017-09-07T23:51:54.248Z,9.17
2017-09-07T23:54:21.843Z,8.70
2017-09-07T23:56:49.381Z,8.23
2017-09-07T23:59:16.915Z,8.50
